Saint Helens, OR (97051)

6:12 AM PDT on March 26, 2017 (GMT -0700)
Hankey Road | | Change Station

Elev 217 ft 45.87 °N, 122.83 °W | Updated 51 seconds ago

Overcast
Overcast
43.2 °F
Feels Like 43 °F
N
0.0
Wind Variable Wind from North
Gusts 0.0 mph

Today
High -- | Low -- °F
--% Chance of Precip.
Yesterday
High -- | Low -- °F
Precip. -- in
Pressure 29.90 in
Visibility 10.0 miles
Clouds Scattered Clouds 6000 ft
Mostly Cloudy 8000 ft
Overcast 11000 ft
Windchill 43 °F
Dew Point 42 °F
Humidity 96%
Rainfall 0.00 in
Snow Depth Not available.
7:02 AM 7:32 PM
Waning Crescent, 3% visible
METAR KSPB 261253Z AUTO 00000KT 10SM SCT060 BKN080 OVC110 06/06 A2989 RMK AO2 SLP123 T00610056
Pressure 29.90 in
Visibility 10.0 miles
Clouds Scattered Clouds 6000 ft
Mostly Cloudy 8000 ft
Overcast 11000 ft
Windchill 43 °F
Dew Point 42 °F
Humidity 96%
Rainfall 0.00 in
Snow Depth Not available.
7:02 AM 7:32 PM
Waning Crescent, 3% visible
METAR KSPB 261253Z AUTO 00000KT 10SM SCT060 BKN080 OVC110 06/06 A2989 RMK AO2 SLP123 T00610056

Get Severe Weather Alerts

Thanks for signing up!

Be on the lookout for a verification email in your inbox.

You'll start receiving the daily forecast at 8 AM.

×

10-Day Weather Forecast

Almanac

Astronomy

Mar. 26, 2017 Rise Set
Actual Time
Civil Twilight
Nautical Twilight
Astronomical Twilight
Moon
Length of Visible Light
Length of Day
Tomorrow will be .
, % of the Moon is Illuminated

Today's Extremes

State Highs State Lows

Community

WunderPhotos

Upload Photos

1,962,540 photos uploaded!

WunderBlog® & News

Nearby

Air Quality

  Air Quality AQ Index Pollutant
Not available.

Snow Depth

Station Depth Elevation

Earthquake Activity

City Distance Mag. Time & Date
Minimum magnitude displayed is 2.5.

Earthquake Activity

City Distance Mag. Time & Date
Minimum magnitude displayed is 2.5.

Coastal Water Temperatures

Place Temperature

Stations

Nearby Weather Stations

Station Location Temp. Windchill Dew Point Humidity Wind Precip. Elev Updated Type
                   

Watches & Warnings

There are currently no watches in effect.